地図

経路データ

SID SEASON NUMBER BASIN SUBBASIN NAME ISO_TIME NATURE LAT LON WMO_WIND WMO_PRES WMO_AGENCY TRACK_TYPE DIST2LAND LANDFALL IFLAG USA_AGENCY USA_ATCF_ID USA_LAT USA_LON USA_RECORD USA_STATUS USA_WIND USA_PRES USA_SSHS USA_R34_NE USA_R34_SE USA_R34_SW USA_R34_NW USA_R50_NE USA_R50_SE USA_R50_SW USA_R50_NW USA_R64_NE USA_R64_SE USA_R64_SW USA_R64_NW USA_POCI USA_ROCI USA_RMW USA_EYE TOKYO_LAT TOKYO_LON TOKYO_GRADE TOKYO_WIND TOKYO_PRES TOKYO_R50_DIR TOKYO_R50_LONG TOKYO_R50_SHORT TOKYO_R30_DIR TOKYO_R30_LONG TOKYO_R30_SHORT TOKYO_LAND CMA_LAT CMA_LON CMA_CAT CMA_WIND CMA_PRES HKO_LAT HKO_LON HKO_CAT HKO_WIND HKO_PRES NEWDELHI_LAT NEWDELHI_LON NEWDELHI_GRADE NEWDELHI_WIND NEWDELHI_PRES NEWDELHI_CI NEWDELHI_DP NEWDELHI_POCI REUNION_LAT REUNION_LON REUNION_TYPE REUNION_WIND REUNION_PRES REUNION_TNUM REUNION_CI REUNION_RMW REUNION_R34_NE REUNION_R34_SE REUNION_R34_SW REUNION_R34_NW REUNION_R50_NE REUNION_R50_SE REUNION_R50_SW REUNION_R50_NW REUNION_R64_NE REUNION_R64_SE REUNION_R64_SW REUNION_R64_NW BOM_LAT BOM_LON BOM_TYPE BOM_WIND BOM_PRES BOM_TNUM BOM_CI BOM_RMW BOM_R34_NE BOM_R34_SE BOM_R34_SW BOM_R34_NW BOM_R50_NE BOM_R50_SE BOM_R50_SW BOM_R50_NW BOM_R64_NE BOM_R64_SE BOM_R64_SW BOM_R64_NW BOM_ROCI BOM_POCI BOM_EYE BOM_POS_METHOD BOM_PRES_METHOD NADI_LAT NADI_LON NADI_CAT NADI_WIND NADI_PRES WELLINGTON_LAT WELLINGTON_LON WELLINGTON_WIND WELLINGTON_PRES DS824_LAT DS824_LON DS824_STAGE DS824_WIND DS824_PRES TD9636_LAT TD9636_LON TD9636_STAGE TD9636_WIND TD9636_PRES TD9635_LAT TD9635_LON TD9635_WIND TD9635_PRES TD9635_ROCI NEUMANN_LAT NEUMANN_LON NEUMANN_CLASS NEUMANN_WIND NEUMANN_PRES MLC_LAT MLC_LON MLC_CLASS MLC_WIND MLC_PRES USA_GUST BOM_GUST BOM_GUST_PER REUNION_GUST REUNION_GUST_PER USA_SEAHGT USA_SEARAD_NE USA_SEARAD_SE USA_SEARAD_SW USA_SEARAD_NW STORM_SPEED STORM_DIR
1945094S12104 1945 20 SI WA NOT_NAMED 1945-04-04 01:00:00 NR -11.5000 104.000 bom main 529 529 ______O_______ -1 -11.5000 104.000 20 188
1945094S12104 1945 20 SI WA NOT_NAMED 1945-04-04 03:00:00 NR -12.1645 103.914 main 603 603 ______P_______ -1 -12.1645 103.914 20 187
1945094S12104 1945 20 SI WA NOT_NAMED 1945-04-04 06:00:00 NR -13.1605 103.788 main 709 709 ______P_______ -1 -13.1605 103.788 20 187
1945094S12104 1945 20 SI WA NOT_NAMED 1945-04-04 09:00:00 NR -14.1533 103.672 main 816 816 ______P_______ -1 -14.1533 103.672 20 186
1945094S12104 1945 20 SI WA NOT_NAMED 1945-04-04 12:00:00 NR -15.1404 103.573 main 914 925 ______P_______ -1 -15.1404 103.573 20 185
1945094S12104 1945 20 SI WA NOT_NAMED 1945-04-04 15:00:00 NR -16.1194 103.497 main 1024 1034 ______P_______ -1 -16.1194 103.497 20 183
1945094S12104 1945 20 SI WA NOT_NAMED 1945-04-04 18:00:00 NR -17.0884 103.451 main 1130 1133 ______P_______ -1 -17.0884 103.451 19 182
1945094S12104 1945 20 SI WA NOT_NAMED 1945-04-04 21:00:00 NR -18.0455 103.442 main 1181 1123 ______P_______ -1 -18.0455 103.442 19 179
1945094S12104 1945 20 SI WA NOT_NAMED 1945-04-05 00:00:00 TS -18.9911 103.482 main 1123 1111 ______P__O____ -1 -18.9888 103.477 -19.0000 103.500 TC 19 177
1945094S12104 1945 20 SI WA NOT_NAMED 1945-04-05 01:00:00 TS -19.3016 103.504 bom main 1111 1078 ______O__P____ -1 -19.3000 103.500 -19.3049 103.511 TC 19 175
1945094S12104 1945 20 SI WA NOT_NAMED 1945-04-05 03:00:00 TS -19.9140 103.565 main 1078 1031 ______P__P____ -1 -19.9160 103.569 -19.9113 103.560 TC 18 170
1945094S12104 1945 20 SI WA NOT_NAMED 1945-04-05 06:00:00 TS -20.8061 103.792 main 1031 1016 ______P__O____ -1 -20.8121 103.784 -20.8000 103.800 TC 19 164
1945094S12104 1945 20 SI WA NOT_NAMED 1945-04-05 07:00:00 TS -21.0937 103.925 bom main 1014 962 ______O__P____ -1 -21.1000 103.900 -21.0874 103.950 TC 20 150
1945094S12104 1945 20 SI WA NOT_NAMED 1945-04-05 09:00:00 TS -21.6555 104.315 main 962 872 ______P__P____ -1 -21.6641 104.271 -21.6470 104.359 TC 21 141
1945094S12104 1945 20 SI WA NOT_NAMED 1945-04-05 12:00:00 TS -22.4570 105.128 main 872 754 ______P__P____ -1 -22.4663 105.069 -22.4477 105.187 TC 23 133
1945094S12104 1945 20 SI WA NOT_NAMED 1945-04-05 15:00:00 TS -23.2093 106.126 main 754 631 ______P__P____ -1 -23.2170 106.066 -23.2016 106.186 TC 24 127
1945094S12104 1945 20 SI WA NOT_NAMED 1945-04-05 18:00:00 TS -23.9140 107.209 main 631 516 ______P__P____ -1 -23.9189 107.161 -23.9091 107.258 TC 24 125
1945094S12104 1945 20 SI WA NOT_NAMED 1945-04-05 21:00:00 TS -24.5751 108.273 main 516 422 ______P__P____ -1 -24.5768 108.248 -24.5733 108.297 TC 22 125
1945094S12104 1945 20 SI WA NOT_NAMED 1945-04-06 00:00:00 TS -25.1994 109.210 main 422 398 ______P__O____ -1 -25.1989 109.220 -25.2000 109.200 TC 40 995 20 128
1945094S12104 1945 20 SI WA NOT_NAMED 1945-04-06 01:00:00 TS -25.4000 109.460 995 bom main 388 341 ______O__P____ -1 -25.4000 109.500 995 4 -25.4001 109.421 TC 17 135
1945094S12104 1945 20 SI WA NOT_NAMED 1945-04-06 03:00:00 TS -25.7887 109.874 main 341 288 ______P__P____ -1 -25.7916 109.923 -25.7857 109.825 TC 15 138
1945094S12104 1945 20 SI WA NOT_NAMED 1945-04-06 06:00:00 TS -26.3497 110.398 main 288 254 ______P__P____ -1 -26.3548 110.454 -26.3447 110.342 TC 14 143
1945094S12104 1945 20 SI WA NOT_NAMED 1945-04-06 09:00:00 TS -26.9101 110.820 main 257 245 ______P__P____ -1 -26.9138 110.877 -26.9064 110.764 TC 13 150
1945094S12104 1945 20 SI WA NOT_NAMED 1945-04-06 12:00:00 TS -27.4980 111.154 main 247 247 ______P__O____ -1 -27.4961 111.207 -27.5000 111.100 TC 13 155
1945094S12104 1945 20 SI WA NOT_NAMED 1945-04-06 13:00:00 TS -27.7083 111.247 bom main 260 252 ______O__P____ -1 -27.7000 111.300 -27.7166 111.194 TC 14 162
1945094S12104 1945 20 SI WA NOT_NAMED 1945-04-06 15:00:00 TS -28.1480 111.400 main 266 260 ______P__P____ -1 -28.1313 111.455 -28.1647 111.345 TC 14 166
1945094S12104 1945 20 SI WA NOT_NAMED 1945-04-06 18:00:00 TS -28.8374 111.566 main 265 269 ______P__P____ -1 -28.8104 111.615 -28.8644 111.518 TC 14 169
1945094S12104 1945 20 SI WA NOT_NAMED 1945-04-06 21:00:00 TS -29.5512 111.715 main 294 289 ______P__P____ -1 -29.5204 111.747 -29.5820 111.682 TC 15 168
1945094S12104 1945 20 SI WA NOT_NAMED 1945-04-07 00:00:00 TS -30.2763 111.911 main 299 291 ______P__O____ -1 -30.2526 111.921 -30.3000 111.900 TC 25 1002 15 166
1945094S12104 1945 20 SI WA NOT_NAMED 1945-04-07 01:00:00 TS -30.5156 111.998 1002 bom main 293 280 ______O__P____ -1 -30.5000 112.000 1002 -30.5365 111.995 TC 15 161
1945094S12104 1945 20 SI WA NOT_NAMED 1945-04-07 03:00:00 TS -31.0007 112.206 main 282 270 ______P__P____ -1 -30.9979 112.199 -31.0048 112.218 TC 16 158
1945094S12104 1945 20 SI WA NOT_NAMED 1945-04-07 06:00:00 TS -31.7328 112.578 main 270 270 ______P__O____ -1 -31.7492 112.568 -31.7000 112.600 TC 16 157
1945094S12104 1945 20 SI WA NOT_NAMED 1945-04-07 07:00:00 NR -32.0000 112.700 bom main 274 ______O_______ -1 -32.0000 112.700 TC 17 158

IBTrACS Databaseについて

本データベースは、米国NOAAが公開する1842年以降の世界の熱帯低気圧のベストトラックデータアーカイブInternational Best Track Archive for Climate Stewardship (IBTrACS)を、ウェブで閲覧しやすい形式に変換したものです。

最終更新日:2021-10-08